Fleurtje — PJCU — position and weather

sailwx.info

Track history (hours):
 
Tides and Currents Weather Stations Pressure Air Temp Water Temp Dewpoint Dewpoint Depression Visibility Wind Speed Wind Dir Waves Ship Positions

Fleurtje

187 foot 3-masted schooner.

Last reported at 2019-Apr-23 19:42 UTC. Time now 2019-Apr-25 12:25 UTC.
Position N 26°20' E 054°43'.

Length 217 m; draft 10.7 m.

Type: Cargo ship. MMSI: 306129000.

Date/timePositionNaut miles runAvg speedWind from/ knotsBaromVisibWave heightAir tempDewpointWater temp
2019-Apr-23 19:42N 26°20' E 054°43'210.2
2019-Apr-23 19:30N 26°20' E 054°45'1110.4
2019-Apr-23 18:24N 26°18' E 054°58'1010.3
2019-Apr-23 17:27N 26°18' E 055°09'510.5
2019-Apr-23 16:57N 26°19' E 055°15'610.7
2019-Apr-23 16:25N 26°20' E 055°21'610.5
2019-Apr-23 15:51N 26°22' E 055°27'1010.9
2019-Apr-23 14:55N 26°24' E 055°39'510.5
2019-Apr-23 14:25N 26°26' E 055°44'  
2019-Apr-18 23:08N 11°52' E 070°39'611.4
2019-Apr-18 22:34N 11°46' E 070°42'111.5
2019-Apr-18 22:30N 11°46' E 070°42'  
Track history (hours):
 
Tides and Currents Weather Stations Pressure Air Temp Water Temp Dewpoint Dewpoint Depression Visibility Wind Speed Wind Dir Waves Ship Positions

Fleurtje

187 foot 3-masted schooner.

Last reported at 2019-Apr-23 19:42 UTC. Time now 2019-Apr-25 12:25 UTC.
Position N 26°20' E 054°43'.

Length 217 m; draft 10.7 m.

Type: Cargo ship. MMSI: 306129000.

Date/timePositionNaut miles runAvg speedWind from/ knotsBaromVisibWave heightAir tempDewpointWater temp
2019-Apr-23 19:42N 26°20' E 054°43'210.2
2019-Apr-23 19:30N 26°20' E 054°45'1110.4
2019-Apr-23 18:24N 26°18' E 054°58'1010.3
2019-Apr-23 17:27N 26°18' E 055°09'510.5
2019-Apr-23 16:57N 26°19' E 055°15'610.7
2019-Apr-23 16:25N 26°20' E 055°21'610.5
2019-Apr-23 15:51N 26°22' E 055°27'1010.9
2019-Apr-23 14:55N 26°24' E 055°39'510.5
2019-Apr-23 14:25N 26°26' E 055°44'  
2019-Apr-18 23:08N 11°52' E 070°39'611.4
2019-Apr-18 22:34N 11°46' E 070°42'111.5
2019-Apr-18 22:30N 11°46' E 070°42'  

Dump ship's entire track history